SEKCJA WYDRUKÓW, pokaż »

METAR EPBY 160730Z 25016KT 9999 BKN023 06/02 Q0996=

METAR EPGD 160730Z 26015KT 9999 -RA FEW007 BKN010 02/01 Q0992 =

METAR EPKK 160730Z 29013KT 9999 FEW030 08/02 Q1002 =

METAR EPKT 160730Z 28013KT CAVOK 07/01 Q1002 =

METAR EPLB 160730Z 28015KT 9999 FEW016 SCT023 BKN044 10/06 Q0999 =

METAR EPLL 160730Z 25019G30KT 9999 SCT028 BKN033 07/01 Q1000 =

METAR EPML 160730Z AUTO 26012KT 9999 BKN020/// BKN055/// 10/04 Q////=

METAR EPMO 160730Z 24021KT 9999 SCT024 BKN033 07/03 Q0998 =

METAR EPPO 160730Z 25011KT 9999 BKN022 06/02 Q0999 =

METAR EPRA 160730Z 29015KT 9999 SCT028 07/02 Q1000=

METAR EPRZ 160730Z 25016KT 9999 FEW040CB 11/06 Q1001 =

METAR EPSC 160730Z 24013KT 9999 -SHRA SCT015TCU OVC018 06/03 Q0996 =

METAR EPSY 160730Z 25014KT 210V280 9999 SCT008 BKN014 BKN019 05/03
Q0995=

METAR EPWA 160730Z 26018KT 9999 BKN026 07/01 Q0999 NOSIG=

METAR EPWR 160730Z 26012KT 9999 FEW036 08/M01 Q1002 =

METAR EPZG 160730Z 23018KT 9999 SCT026 BKN038 OVC049 07/04 Q0999 =
 METAR EPBY
Lokalizacja:EPBY Bydgoszcz
Czas:07:30 UTC
Średni kierunek wiatru:250 °
Średnia prędkość wiatru:16 węzłów
Widzialność:10 km i więcej
Pierwsza warstwa chmur:5/8 do 7/8, wysokość podstawy 2300 FT
Temperatura powietrza:6 °C
Temperatura punktu rosy:2 °C
Ciśnienie QNH:996 hPa